Germanton, NC (27019)

5:55 PM EDT on April 26, 2015 (GMT -0400)
Forsyth County | | Change Station
CLOSE
Current Station
Personal Weather Station
Location: Rural Hall, NC
Elevation: 825 ft
Nearby Weather Stations

Elev 825 ft 36.22 °N, 80.25 °W | Updated 2 minutes ago

Overcast
Overcast
53.8 °F
Feels Like 53.8 °F
N
0.0
Wind Variable Wind from NNW
Gusts 8.0 mph

Today
High -- | Low -- °F
--% Chance of Precip.
Yesterday
High -- | Low -- °F
Precip. -- in
6:33 AM 8:04 PM
First Quarter, 59% visible
Pressure 29.73 in
Visibility 10.0 miles
Clouds Mostly Cloudy 1900 ft
Overcast 4900 ft
Dew Point 47 °F
Humidity 78%
Rainfall 0.02 in
Snow Depth Not available.
UV 1 out of 12
Pollen 6.10 out of 12
Air Quality Not available.
Flu Activity Sporadic
METAR KINT 262054Z AUTO 02008KT 10SM BKN019 OVC049 12/07 A2973 RMK AO2 SLP067 T01170072 58002

More Conditions Fewer Conditions

Pressure 29.73 in
Visibility 10.0 miles
Clouds Mostly Cloudy 1900 ft
Overcast 4900 ft
Dew Point 47 °F
Humidity 78%
Rainfall 0.02 in
Snow Depth Not available.
UV 1 out of 12
Pollen 6.10 out of 12
Air Quality Not available.
Flu Activity Sporadic
METAR KINT 262054Z AUTO 02008KT 10SM BKN019 OVC049 12/07 A2973 RMK AO2 SLP067 T01170072 58002

More Conditions Fewer Conditions

The full scope of the disaster following a powerful 7.8-magnitude earthquake in Nepal may not come into view for days, but global charities are already sending emergency aid. Click to see how you can help.

10-Day Weather Forecast

Almanac

Astronomy

Apr. 26, 2015 Rise Set
Actual Time
Civil Twilight
Nautical Twilight
Astronomical Twilight
Moon
Length of Visible Light
Length of Day
Tomorrow will be .
, % of the Moon is Illuminated

Today's Extremes

State Highs State Lows

Community

WunderPhotos

Upload Photos

1,817,132 photos uploaded!

WunderBlogs® & News

Nearby

Air Quality

  Air Quality AQ Index Pollutant
Not available.

Snow Depth

Station Depth Elevation

Earthquake Activity

City Distance Mag. Time & Date
Minimum magnitude displayed is 2.5.

Coastal Water Temperatures

Place Temperature

Stations

Nearby Weather Stations

Station Location Temp. Windchill Dew Point Humidity Wind Precip. Elev Updated Type